Time;durP1;ratioP1;P1;durP2;ratioP2;P2;SDS_P1;SDS_P2;PMS_P1;PMS_P2;Temp;Humidity;BMP_temperature;BMP_pressure;BME280_temperature;BME280_humidity;BME280_pressure;Samples;Min_cycle;Max_cycle;Signal;HPM_P1;HPM_P2
2022/06/18 00:00:04;;;;;;;3.90;2.70;;;17.70;99.90;;;;;;5057766;28;20436;-88
2022/06/18 00:02:30;;;;;;;3.10;2.70;;;17.50;99.90;;;;;;5074886;28;20165;-85
2022/06/18 00:04:55;;;;;;;3.00;2.60;;;17.50;99.90;;;;;;5072200;28;20438;-85
2022/06/18 00:07:22;;;;;;;3.20;2.90;;;17.30;99.90;;;;;;5071434;28;20177;-86
2022/06/18 00:10:01;;;;;;;2.90;2.43;;;17.30;99.90;;;;;;5072276;28;20191;-86
2022/06/18 00:15:18;;;;;;;4.83;3.20;;;17.20;99.90;;;;;;5072727;28;20446;-86
2022/06/18 00:17:45;;;;;;;4.30;2.97;;;17.20;99.90;;;;;;5070315;28;20445;-86
2022/06/18 00:20:13;;;;;;;4.47;3.10;;;17.10;99.90;;;;;;5040748;28;20442;-87
2022/06/18 00:22:41;;;;;;;3.80;3.40;;;17.00;99.90;;;;;;5077223;28;20412;-86
2022/06/18 00:25:20;;;;;;;3.70;3.33;;;17.00;99.90;;;;;;5074448;28;20522;-87
2022/06/18 00:27:46;;;;;;;4.70;3.17;;;17.00;99.90;;;;;;5059003;28;20502;-85
2022/06/18 00:30:19;;;;;;;5.50;3.33;;;16.90;99.90;;;;;;5076129;28;20471;-87
2022/06/18 00:32:44;;;;;;;3.37;2.87;;;16.90;99.90;;;;;;5056836;28;20307;-89
2022/06/18 00:35:12;;;;;;;3.30;2.90;;;16.90;99.90;;;;;;5075403;28;20994;-86
2022/06/18 00:37:38;;;;;;;4.43;4.00;;;;;;;;;;5058874;28;20202;-87
2022/06/18 00:40:11;;;;;;;4.97;3.90;;;17.00;99.90;;;;;;5074633;28;20917;-86
2022/06/18 00:42:39;;;;;;;3.97;3.37;;;16.90;99.90;;;;;;5057257;28;20483;-86
2022/06/18 00:45:05;;;;;;;5.50;3.07;;;16.90;99.90;;;;;;5074843;28;20434;-86
2022/06/18 00:47:42;;;;;;;3.27;2.90;;;16.90;99.90;;;;;;5076438;28;20486;-86
2022/06/18 00:50:37;;;;;;;4.63;3.13;;;16.80;99.90;;;;;;5056398;28;20470;-88
2022/06/18 00:53:14;;;;;;;4.43;2.93;;;16.70;99.90;;;;;;5074353;28;20466;-86
2022/06/18 00:55:42;;;;;;;4.73;3.37;;;16.70;99.90;;;;;;5076628;28;20438;-86
2022/06/18 00:58:15;;;;;;;5.83;3.33;;;16.70;99.90;;;;;;5076485;28;20431;-86
2022/06/18 01:00:47;;;;;;;7.50;3.23;;;16.60;99.90;;;;;;5078847;28;20438;-86
2022/06/18 01:03:25;;;;;;;6.30;3.80;;;16.60;99.90;;;;;;5063894;28;20454;-86
2022/06/18 01:05:52;;;;;;;4.27;3.40;;;16.50;99.90;;;;;;5080281;28;20553;-87
2022/06/18 01:08:20;;;;;;;5.20;3.50;;;16.50;99.90;;;;;;5058321;28;20434;-87
2022/06/18 01:10:52;;;;;;;3.87;3.00;;;16.50;99.90;;;;;;5073951;28;20439;-87
2022/06/18 01:13:21;;;;;;;6.37;5.00;;;16.40;99.90;;;;;;5073348;28;20493;-86
2022/06/18 01:15:48;;;;;;;7.07;3.70;;;16.20;99.90;;;;;;5057685;28;20414;-87
2022/06/18 01:18:15;;;;;;;13.13;4.07;;;16.20;99.90;;;;;;5057376;28;20427;-86
2022/06/18 01:20:44;;;;;;;4.33;3.40;;;16.20;99.90;;;;;;5075486;28;20514;-86
2022/06/18 01:23:16;;;;;;;6.77;4.83;;;16.20;99.90;;;;;;5056479;28;20446;-87
2022/06/18 01:25:42;;;;;;;4.57;4.00;;;16.20;99.90;;;;;;5073125;28;20479;-87
2022/06/18 01:28:09;;;;;;;9.03;3.77;;;16.20;99.90;;;;;;5074649;28;20458;-86
2022/06/18 01:30:38;;;;;;;5.03;4.10;;;16.20;99.90;;;;;;5075055;28;20251;-87
2022/06/18 01:33:09;;;;;;;6.80;3.77;;;16.30;99.90;;;;;;5055807;28;20500;-86
2022/06/18 01:35:38;;;;;;;3.47;3.17;;;16.30;99.90;;;;;;5068742;28;20441;-86
2022/06/18 01:38:05;;;;;;;6.13;3.70;;;16.30;99.90;;;;;;5057054;28;20419;-86
2022/06/18 01:40:55;;;;;;;8.83;4.17;;;16.20;99.90;;;;;;5075448;28;20434;-87
2022/06/18 01:43:23;;;;;;;9.03;4.20;;;16.10;99.90;;;;;;5074996;28;20470;-87
2022/06/18 01:45:56;;;;;;;6.63;3.33;;;16.00;99.90;;;;;;5082002;23;20482;-83
2022/06/18 01:48:30;;;;;;;6.20;4.43;;;16.00;99.90;;;;;;5051751;28;20577;-83
2022/06/18 01:51:04;;;;;;;5.67;4.20;;;15.90;99.90;;;;;;5051995;28;20494;-81
2022/06/18 01:53:35;;;;;;;10.43;4.60;;;15.90;99.90;;;;;;5051527;28;21187;-82
2022/06/18 01:56:06;;;;;;;6.93;3.90;;;15.80;99.90;;;;;;5052374;28;21001;-83
2022/06/18 01:58:39;;;;;;;3.87;3.47;;;15.80;99.90;;;;;;5060873;28;20428;-83
2022/06/18 02:01:11;;;;;;;5.90;4.40;;;15.90;99.90;;;;;;5055250;28;20480;-83
2022/06/18 02:03:37;;;;;;;7.80;4.10;;;15.90;99.90;;;;;;5054817;28;20435;-82
2022/06/18 02:06:04;;;;;;;6.10;3.73;;;16.00;99.90;;;;;;5035600;28;20463;-82
2022/06/18 02:08:29;;;;;;;4.70;3.90;;;15.90;99.90;;;;;;5052147;28;20246;-82
2022/06/18 02:10:59;;;;;;;5.17;3.73;;;15.90;99.90;;;;;;5054094;28;20423;-82
2022/06/18 02:13:29;;;;;;;10.23;4.87;;;15.80;99.90;;;;;;5034989;28;20565;-82
2022/06/18 02:15:57;;;;;;;5.53;3.70;;;15.80;99.90;;;;;;5036658;28;20439;-82
2022/06/18 02:18:23;;;;;;;7.40;4.43;;;15.80;99.90;;;;;;5052078;28;20457;-82
2022/06/18 02:20:53;;;;;;;3.97;3.50;;;15.80;99.90;;;;;;5051388;28;20476;-82
2022/06/18 02:23:21;;;;;;;5.50;4.20;;;15.90;99.90;;;;;;5050873;28;20514;-82
2022/06/18 02:25:47;;;;;;;5.50;4.20;;;15.90;99.90;;;;;;5051051;28;20872;-83
2022/06/18 02:28:23;;;;;;;9.47;5.13;;;15.90;99.90;;;;;;5051792;28;20424;-83
2022/06/18 02:30:51;;;;;;;3.87;3.57;;;15.90;99.90;;;;;;5052118;28;20799;-83
2022/06/18 02:33:36;;;;;;;8.13;4.37;;;16.00;99.90;;;;;;5050394;28;20486;-82
2022/06/18 02:36:23;;;;;;;6.53;4.47;;;16.00;99.90;;;;;;5050581;28;20461;-83
2022/06/18 02:38:53;;;;;;;5.70;5.20;;;16.00;99.90;;;;;;5052596;28;20486;-83
2022/06/18 02:41:18;;;;;;;4.77;4.33;;;16.00;99.90;;;;;;5051807;28;20899;-84
2022/06/18 02:43:45;;;;;;;5.40;4.03;;;16.00;99.90;;;;;;5050407;28;20423;-82
2022/06/18 02:46:13;;;;;;;9.57;4.60;;;16.00;99.90;;;;;;5019764;28;20700;-83
2022/06/18 02:48:39;;;;;;;4.53;4.13;;;15.90;99.90;;;;;;5020665;28;20461;-83
2022/06/18 02:51:06;;;;;;;6.37;4.27;;;15.90;99.90;;;;;;5032786;28;20438;-82
2022/06/18 02:53:33;;;;;;;4.80;4.17;;;15.90;99.90;;;;;;5051098;28;20459;-82
2022/06/18 02:56:03;;;;;;;4.40;4.00;;;15.80;99.90;;;;;;5040390;28;20439;-82
2022/06/18 02:58:33;;;;;;;5.37;4.27;;;15.80;99.90;;;;;;5050798;28;20491;-82
2022/06/18 03:01:07;;;;;;;7.40;4.50;;;15.80;99.90;;;;;;5034093;28;20427;-83
2022/06/18 03:03:38;;;;;;;7.03;4.87;;;15.90;99.90;;;;;;5051246;28;20454;-83
2022/06/18 03:06:05;;;;;;;5.70;4.40;;;15.80;99.90;;;;;;5052600;28;20562;-82
2022/06/18 03:08:31;;;;;;;5.57;4.70;;;15.90;99.90;;;;;;5058059;28;20427;-83
2022/06/18 03:13:43;;;;;;;5.30;4.30;;;15.90;99.90;;;;;;5052835;28;20901;-85
2022/06/18 03:16:10;;;;;;;4.53;4.13;;;15.90;99.90;;;;;;5050453;28;20451;-84
2022/06/18 03:18:38;;;;;;;5.03;4.50;;;15.90;99.90;;;;;;5034810;28;20491;-84
2022/06/18 03:21:24;;;;;;;5.80;4.33;;;15.80;99.90;;;;;;5034186;28;20485;-83
2022/06/18 03:23:50;;;;;;;6.97;3.93;;;15.80;99.90;;;;;;5049910;28;20427;-83
2022/06/18 03:26:17;;;;;;;6.27;4.10;;;15.80;99.90;;;;;;5050402;28;20435;-83
2022/06/18 03:28:43;;;;;;;9.50;3.93;;;15.70;99.90;;;;;;5057327;28;20203;-84
2022/06/18 03:31:09;;;;;;;5.63;3.80;;;;;;;;;;5060300;28;20438;-84
2022/06/18 03:33:35;;;;;;;4.17;3.87;;;15.70;99.90;;;;;;5034072;28;20475;-84
2022/06/18 03:36:02;;;;;;;5.63;4.13;;;15.80;99.90;;;;;;5052219;28;20450;-84
2022/06/18 03:38:28;;;;;;;5.57;3.80;;;15.80;99.90;;;;;;5035261;28;20177;-85
2022/06/18 03:40:54;;;;;;;5.27;4.70;;;15.90;99.90;;;;;;5050551;28;20490;-83
2022/06/18 03:43:21;;;;;;;4.13;3.47;;;15.90;99.90;;;;;;5049135;28;20833;-84
2022/06/18 03:45:50;;;;;;;4.67;3.90;;;15.90;99.90;;;;;;5034349;28;20312;-84
2022/06/18 03:48:27;;;;;;;4.33;3.90;;;15.90;99.90;;;;;;5052114;28;20412;-84
2022/06/18 03:50:53;;;;;;;9.47;4.20;;;16.00;99.90;;;;;;5052818;28;20435;-85
2022/06/18 03:53:19;;;;;;;6.10;2.90;;;16.10;99.90;;;;;;5055384;28;20463;-84
2022/06/18 03:55:45;;;;;;;5.23;3.77;;;16.40;99.90;;;;;;5056213;28;20219;-85
2022/06/18 03:58:10;;;;;;;5.90;3.50;;;16.50;99.90;;;;;;5050878;28;20495;-84
2022/06/18 04:00:37;;;;;;;3.50;3.20;;;16.70;99.90;;;;;;5067618;28;20788;-83
2022/06/18 04:03:03;;;;;;;3.87;3.47;;;16.80;99.90;;;;;;5049544;28;20187;-85
2022/06/18 04:05:30;;;;;;;4.57;3.60;;;17.10;99.90;;;;;;5059298;28;20450;-85
2022/06/18 04:07:55;;;;;;;6.50;3.73;;;17.20;99.90;;;;;;5058142;28;20418;-85
2022/06/18 04:10:22;;;;;;;5.93;3.20;;;17.60;99.90;;;;;;5038618;28;20844;-84
2022/06/18 04:12:48;;;;;;;5.30;2.80;;;17.60;99.90;;;;;;5038285;28;20727;-84
2022/06/18 04:15:15;;;;;;;4.53;3.00;;;18.30;99.90;;;;;;5055464;28;20435;-85
2022/06/18 04:17:42;;;;;;;3.57;2.90;;;18.30;99.90;;;;;;5056345;28;20446;-85
2022/06/18 04:20:27;;;;;;;5.40;2.87;;;19.20;99.90;;;;;;5056132;28;20423;-85
2022/06/18 04:22:53;;;;;;;3.97;2.70;;;20.40;99.90;;;;;;5053887;28;20526;-82
2022/06/18 04:25:18;;;;;;;2.80;2.60;;;22.20;99.90;;;;;;5056958;28;20546;-84
2022/06/18 04:27:44;;;;;;;3.73;3.43;;;;;;;;;;5048056;28;21145;-85
2022/06/18 04:30:11;;;;;;;3.27;2.90;;;23.90;99.90;;;;;;5055031;28;20411;-85
2022/06/18 04:32:37;;;;;;;3.03;2.80;;;25.80;99.90;;;;;;5055001;28;20447;-84
2022/06/18 04:35:05;;;;;;;5.20;3.00;;;26.90;99.90;;;;;;5036472;28;20470;-85
2022/06/18 04:37:31;;;;;;;2.73;2.53;;;;;;;;;;5054524;28;20407;-85
2022/06/18 04:39:57;;;;;;;4.60;3.73;;;;;;;;;;5055366;28;20477;-83
2022/06/18 04:42:23;;;;;;;6.77;4.23;;;;;;;;;;5054776;28;20500;-82
2022/06/18 04:44:49;;;;;;;5.43;3.90;;;;;;;;;;5054456;28;20462;-84
2022/06/18 04:47:15;;;;;;;5.13;4.50;;;30.70;88.10;;;;;;5035628;28;20484;-84
2022/06/18 04:49:40;;;;;;;6.13;4.23;;;31.10;90.40;;;;;;5036035;28;20440;-84
2022/06/18 04:52:06;;;;;;;3.70;3.40;;;31.50;77.40;;;;;;5041583;28;20606;-84
2022/06/18 04:54:32;;;;;;;4.10;3.70;;;;;;;;;;5035331;28;20209;-84
2022/06/18 04:56:58;;;;;;;6.20;4.00;;;;;;;;;;5036776;28;20404;-84
2022/06/18 04:59:24;;;;;;;4.97;4.20;;;;;;;;;;5055121;28;20479;-84
2022/06/18 05:02:13;;;;;;;5.53;4.67;;;33.40;63.10;;;;;;5056268;28;20470;-83
2022/06/18 05:04:39;;;;;;;4.63;4.00;;;;;;;;;;5041919;28;20459;-85
2022/06/18 05:07:05;;;;;;;4.47;4.10;;;;;;;;;;5037573;28;20461;-84
2022/06/18 05:09:31;;;;;;;6.57;5.20;;;;;;;;;;5038969;28;20428;-84
2022/06/18 05:11:57;;;;;;;5.57;4.93;;;;;;;;;;5056917;28;20539;-84
2022/06/18 05:14:23;;;;;;;5.50;5.00;;;;;;;;;;5055488;28;20838;-85
2022/06/18 05:16:49;;;;;;;7.03;5.97;;;;;;;;;;5038605;28;20872;-85
2022/06/18 05:19:24;;;;;;;6.17;5.67;;;34.20;54.70;;;;;;5055485;28;20790;-84
2022/06/18 05:21:50;;;;;;;11.03;6.20;;;34.90;55.00;;;;;;5058270;28;20425;-83
2022/06/18 05:24:16;;;;;;;6.83;6.33;;;;;;;;;;5066047;28;20437;-83
2022/06/18 05:26:45;;;;;;;7.00;6.50;;;36.70;52.00;;;;;;5062341;28;20409;-86
2022/06/18 05:29:11;;;;;;;7.50;6.80;;;;;;;;;;5056872;28;20472;-84
2022/06/18 05:31:37;;;;;;;8.97;8.17;;;;;;;;;;5056680;28;20410;-86
2022/06/18 05:34:03;;;;;;;7.50;6.93;;;;;;;;;;5034500;28;20819;-85
2022/06/18 05:36:29;;;;;;;8.23;7.73;;;;;;;;;;5037366;28;21162;-86
2022/06/18 05:38:57;;;;;;;9.93;9.10;;;;;;;;;;5053180;28;20427;-86
2022/06/18 05:41:23;;;;;;;9.50;8.70;;;;;;;;;;5053295;28;20461;-87
2022/06/18 05:43:49;;;;;;;10.47;9.77;;;;;;;;;;5033031;28;21073;-87
2022/06/18 05:46:15;;;;;;;10.37;9.80;;;;;;;;;;5052209;28;20474;-84
2022/06/18 05:48:41;;;;;;;10.20;9.60;;;;;;;;;;5055158;28;20415;-88
2022/06/18 05:51:07;;;;;;;11.77;11.07;;;;;;;;;;5052625;28;20439;-87
2022/06/18 05:53:33;;;;;;;11.93;11.30;;;;;;;;;;5054573;28;20516;-84
2022/06/18 05:55:59;;;;;;;12.97;11.93;;;;;;;;;;5053191;28;20245;-87
2022/06/18 05:58:25;;;;;;;12.40;11.73;;;;;;;;;;5036190;28;20427;-88
2022/06/18 06:00:51;;;;;;;13.63;12.90;;;;;;;;;;5053360;28;20472;-87
2022/06/18 06:03:17;;;;;;;12.20;11.60;;;;;;;;;;5034395;28;20502;-85
2022/06/18 06:05:43;;;;;;;13.07;12.40;;;;;;;;;;5042228;28;20457;-86
2022/06/18 06:08:13;;;;;;;13.37;12.67;;;45.90;33.80;;;;;;5049718;28;20189;-87
2022/06/18 06:13:24;;;;;;;15.63;14.53;;;;;;;;;;5051271;28;20516;-87
2022/06/18 06:15:52;;;;;;;11.40;10.73;;;44.30;33.50;;;;;;5051980;28;20868;-86
2022/06/18 06:18:20;;;;;;;12.00;11.40;;;42.90;33.80;;;;;;5032822;28;20494;-86
2022/06/18 06:20:48;;;;;;;15.10;14.40;;;42.70;35.40;;;;;;5051941;28;20939;-86
2022/06/18 06:23:14;;;;;;;14.80;13.77;;;;;;;;;;5050950;28;20431;-85
2022/06/18 06:25:41;;;;;;;7.03;6.43;;;41.60;35.90;;;;;;5049717;28;20447;-87
2022/06/18 06:28:11;;;;;;;15.13;14.13;;;;;;;;;;5050903;28;20442;-87
2022/06/18 06:30:38;;;;;;;14.77;13.90;;;42.20;35.60;;;;;;5050024;28;20423;-86
2022/06/18 06:33:04;;;;;;;15.77;15.00;;;;;;;;;;5050586;28;20473;-85
2022/06/18 06:35:30;;;;;;;15.40;14.70;;;;;;;;;;5050435;28;20451;-87
2022/06/18 06:37:56;;;;;;;14.80;14.10;;;;;;;;;;5052608;28;20785;-86
2022/06/18 06:40:22;;;;;;;14.73;14.03;;;;;;;;;;5033543;28;20411;-87
2022/06/18 06:42:50;;;;;;;13.70;13.00;;;45.50;33.10;;;;;;5051728;28;20455;-87
2022/06/18 06:45:21;;;;;;;15.70;14.50;;;45.00;32.00;;;;;;5033480;28;20467;-85
2022/06/18 06:47:48;;;;;;;15.63;14.57;;;45.40;33.50;;;;;;5053233;28;20423;-87
2022/06/18 06:50:15;;;;;;;16.20;15.50;;;45.80;32.00;;;;;;5063599;28;20408;-84
2022/06/18 06:52:42;;;;;;;16.27;15.47;;;;;;;;;;5070970;28;20431;-87
2022/06/18 06:58:16;;;;;;;17.23;16.33;;;;;;;;;;5059142;28;20516;-86
2022/06/18 07:00:45;;;;;;;15.63;14.50;;;45.50;32.90;;;;;;5058399;28;20431;-87
2022/06/18 07:03:13;;;;;;;15.00;14.20;;;45.50;33.50;;;;;;5052932;28;20446;-87
2022/06/18 07:05:39;;;;;;;14.27;13.40;;;;;;;;;;5052423;28;20454;-87
2022/06/18 07:08:05;;;;;;;14.50;13.60;;;;;;;;;;5050790;28;20813;-87
2022/06/18 07:10:31;;;;;;;16.13;15.33;;;;;;;;;;5051830;28;20792;-88
2022/06/18 07:12:57;;;;;;;16.43;15.63;;;;;;;;;;5051666;28;20515;-88
2022/06/18 07:15:23;;;;;;;16.03;14.97;;;;;;;;;;5046959;28;20211;-87
2022/06/18 07:17:49;;;;;;;18.80;17.67;;;;;;;;;;5050160;28;20476;-86
2022/06/18 07:20:17;;;;;;;14.70;13.93;;;42.90;36.40;;;;;;5047592;28;20435;-87
2022/06/18 07:22:43;;;;;;;15.60;14.80;;;;;;;;;;5049011;28;20177;-87
2022/06/18 07:25:10;;;;;;;16.07;14.70;;;45.60;49.50;;;;;;5048963;28;21041;-87
2022/06/18 07:27:36;;;;;;;14.43;13.63;;;45.50;34.80;;;;;;5051564;28;20430;-87
2022/06/18 07:30:05;;;;;;;16.73;15.63;;;45.00;33.20;;;;;;5053843;28;20438;-88
2022/06/18 07:32:31;;;;;;;13.90;13.30;;;;;;;;;;5032861;28;20431;-87
2022/06/18 07:34:57;;;;;;;16.63;15.40;;;;;;;;;;5050592;28;20493;-87
2022/06/18 07:37:23;;;;;;;15.80;15.00;;;;;;;;;;5051308;28;20908;-86
2022/06/18 07:39:50;;;;;;;16.40;15.50;;;;;;;;;;5051039;28;20448;-86
2022/06/18 07:42:21;;;;;;;16.47;15.53;;;46.80;33.30;;;;;;5049926;28;20422;-87
2022/06/18 07:47:17;;;;;;;17.97;17.07;;;44.50;32.50;;;;;;5069257;22;20488;-86
2022/06/18 07:49:45;;;;;;;15.03;14.43;;;43.10;33.50;;;;;;5049504;28;20431;-86
2022/06/18 07:52:15;;;;;;;13.77;12.83;;;43.50;34.40;;;;;;5056731;28;20410;-87
2022/06/18 07:54:42;;;;;;;13.60;12.70;;;44.20;33.00;;;;;;5041532;28;20446;-87
2022/06/18 07:57:08;;;;;;;13.53;12.63;;;;;;;;;;5056926;28;20525;-88
2022/06/18 07:59:34;;;;;;;13.90;13.30;;;;;;;;;;5048103;28;20426;-86
2022/06/18 08:02:00;;;;;;;12.30;11.70;;;;;;;;;;5053907;28;20953;-87
2022/06/18 08:04:29;;;;;;;13.33;12.33;;;;;;;;;;5053077;28;20865;-87
2022/06/18 08:06:55;;;;;;;15.37;14.77;;;;;;;;;;5053502;28;20462;-87
2022/06/18 08:09:21;;;;;;;15.43;14.60;;;;;;;;;;5042206;28;20450;-86
2022/06/18 08:11:47;;;;;;;12.67;12.07;;;;;;;;;;5041155;28;20184;-86
2022/06/18 08:14:13;;;;;;;13.70;12.90;;;;;;;;;;5054669;28;20466;-86
2022/06/18 08:16:39;;;;;;;12.70;12.00;;;;;;;;;;5041582;28;20567;-88
2022/06/18 08:19:05;;;;;;;12.63;11.47;;;;;;;;;;5047996;28;20435;-88
2022/06/18 08:21:35;;;;;;;11.97;11.00;;;45.30;30.00;;;;;;5051786;28;20419;-85
2022/06/18 08:24:09;;;;;;;11.60;11.00;;;43.10;32.00;;;;;;5054056;28;20180;-86
2022/06/18 08:26:36;;;;;;;13.40;12.67;;;;;;;;;;5058920;28;20453;-88
2022/06/18 08:29:02;;;;;;;12.57;11.77;;;;;;;;;;5041310;28;20435;-85
2022/06/18 08:31:28;;;;;;;14.27;13.50;;;;;;;;;;5056200;28;20439;-88
2022/06/18 08:33:55;;;;;;;14.17;13.50;;;42.80;33.60;;;;;;5047831;28;20561;-87
2022/06/18 08:36:21;;;;;;;12.70;12.00;;;;;;;;;;5043149;28;20508;-86
2022/06/18 08:38:48;;;;;;;11.40;10.80;;;43.30;34.50;;;;;;5048200;28;20426;-85
2022/06/18 08:41:31;;;;;;;14.23;13.20;;;43.00;39.90;;;;;;5059757;28;20453;-86
2022/06/18 08:44:29;;;;;;;13.37;12.53;;;43.90;33.40;;;;;;5051523;28;20431;-85
2022/06/18 08:47:13;;;;;;;14.50;13.57;;;44.10;33.30;;;;;;5055276;28;20475;-86
2022/06/18 08:49:44;;;;;;;15.27;14.10;;;44.50;34.00;;;;;;5044451;28;20465;-85
2022/06/18 08:52:37;;;;;;;17.17;16.37;;;44.50;50.30;;;;;;5053326;28;20418;-87
2022/06/18 08:55:22;;;;;;;14.57;13.87;;;45.50;31.00;;;;;;5059079;28;20631;-85
2022/06/18 08:57:48;;;;;;;15.90;15.20;;;;;;;;;;5051361;28;20863;-85
2022/06/18 09:00:14;;;;;;;16.97;15.97;;;;;;;;;;5039845;28;20423;-84
2022/06/18 09:02:47;;;;;;;15.20;14.40;;;44.20;32.40;;;;;;5056618;28;20183;-85
2022/06/18 09:05:22;;;;;;;12.87;12.37;;;44.10;34.80;;;;;;5048914;28;20209;-85
2022/06/18 09:08:05;;;;;;;14.70;13.80;;;44.40;32.10;;;;;;5053210;28;20454;-86
2022/06/18 09:10:46;;;;;;;13.97;13.37;;;43.00;32.40;;;;;;5049483;28;20499;-86
2022/06/18 09:13:19;;;;;;;14.40;13.40;;;42.90;33.50;;;;;;5050718;28;20978;-87
2022/06/18 09:15:49;;;;;;;15.97;11.70;;;43.60;32.80;;;;;;5041686;28;20473;-87
2022/06/18 09:18:25;;;;;;;14.40;13.50;;;44.00;33.10;;;;;;5055237;28;20514;-85
2022/06/18 09:20:54;;;;;;;12.77;12.07;;;44.80;31.40;;;;;;5053813;28;20427;-86
2022/06/18 09:23:29;;;;;;;15.07;14.00;;;44.90;32.00;;;;;;5039480;28;20451;-86
2022/06/18 09:25:58;;;;;;;14.00;13.30;;;45.00;31.20;;;;;;5057616;28;20492;-87
2022/06/18 09:28:39;;;;;;;13.47;12.80;;;43.90;31.10;;;;;;5058878;28;20444;-86
2022/06/18 09:31:12;;;;;;;14.53;13.83;;;42.40;32.80;;;;;;5054010;28;20435;-87
2022/06/18 09:33:43;;;;;;;12.37;11.63;;;40.90;34.00;;;;;;5040356;28;20455;-88
2022/06/18 09:36:21;;;;;;;12.03;11.10;;;40.20;40.70;;;;;;5052904;28;20450;-85
2022/06/18 09:39:03;;;;;;;17.27;16.40;;;39.80;35.70;;;;;;5051503;28;20477;-85
2022/06/18 09:41:33;;;;;;;18.73;17.83;;;40.00;37.20;;;;;;5056710;28;20412;-87
2022/06/18 09:44:19;;;;;;;17.70;16.70;;;40.30;35.60;;;;;;5057765;28;20446;-85
2022/06/18 09:46:55;;;;;;;16.17;15.27;;;40.80;34.10;;;;;;5054918;28;21024;-86
2022/06/18 09:49:21;;;;;;;7.90;7.40;;;;;;;;;;5041072;28;20494;-85
2022/06/18 09:52:05;;;;;;;11.20;10.30;;;40.70;32.80;;;;;;5045459;28;20526;-86
2022/06/18 09:54:39;;;;;;;9.60;9.20;;;42.60;31.70;;;;;;5043065;28;20454;-85
2022/06/18 09:57:06;;;;;;;9.33;8.83;;;;;;;;;;5057643;28;20462;-85
2022/06/18 09:59:40;;;;;;;9.93;9.30;;;41.40;31.70;;;;;;5044877;28;20841;-85
2022/06/18 10:02:23;;;;;;;11.17;10.57;;;41.00;33.70;;;;;;5059564;28;20806;-85
2022/06/18 10:07:39;;;;;;;10.50;9.47;;;;;;;;;;5055676;28;20425;-87
2022/06/18 10:10:09;;;;;;;8.83;8.43;;;40.60;29.40;;;;;;5054572;28;20415;-88
2022/06/18 10:12:44;;;;;;;9.20;8.60;;;40.50;33.30;;;;;;5054266;28;20464;-87
2022/06/18 10:15:13;;;;;;;9.27;8.60;;;39.90;30.20;;;;;;5061641;28;20958;-86
2022/06/18 10:17:53;;;;;;;14.77;14.07;;;40.00;32.40;;;;;;5060170;28;20408;-88
2022/06/18 10:20:40;;;;;;;16.43;15.43;;;40.50;30.00;;;;;;5058718;28;21013;-86
2022/06/18 10:23:11;;;;;;;13.80;13.07;;;41.30;42.00;;;;;;5055743;28;20427;-89
2022/06/18 10:25:43;;;;;;;15.37;14.67;;;40.80;30.40;;;;;;5056023;28;20447;-87
2022/06/18 10:28:43;;;;;;;15.17;14.57;;;41.80;30.00;;;;;;5069014;28;20408;-86
2022/06/18 10:31:25;;;;;;;16.40;15.70;;;42.30;29.60;;;;;;5062912;28;20421;-86
2022/06/18 10:34:14;;;;;;;16.53;15.83;;;42.00;27.00;;;;;;5047109;28;20996;-85
2022/06/18 10:37:31;;;;;;;16.20;15.50;;;42.90;25.00;;;;;;5044175;28;20443;-88
2022/06/18 10:40:18;;;;;;;16.17;15.53;;;39.90;26.70;;;;;;5021108;28;20407;-88
2022/06/18 10:43:04;;;;;;;14.70;13.80;;;38.60;31.60;;;;;;5059552;28;20803;-88
2022/06/18 10:45:45;;;;;;;13.93;13.23;;;37.00;30.10;;;;;;5060710;28;20481;-86
2022/06/18 10:48:14;;;;;;;14.20;13.50;;;36.00;27.60;;;;;;5059366;28;20483;-85
2022/06/18 10:50:52;;;;;;;12.40;11.90;;;36.40;28.10;;;;;;5050057;28;20424;-86
2022/06/18 10:53:21;;;;;;;12.10;11.40;;;34.90;27.40;;;;;;5056185;28;20913;-87
2022/06/18 10:56:05;;;;;;;12.33;11.30;;;34.90;27.90;;;;;;5043789;28;20767;-84
2022/06/18 10:58:31;;;;;;;11.23;10.73;;;34.50;29.50;;;;;;5051890;28;20437;-86
2022/06/18 11:01:11;;;;;;;11.63;11.03;;;35.10;30.00;;;;;;5051995;28;20428;-86
2022/06/18 11:03:37;;;;;;;11.40;10.90;;;34.80;27.40;;;;;;5044260;28;20421;-87
2022/06/18 11:06:09;;;;;;;10.80;9.90;;;34.40;28.50;;;;;;5051721;28;20540;-87
2022/06/18 11:08:36;;;;;;;10.47;9.97;;;34.50;29.00;;;;;;5053148;28;20351;-85
2022/06/18 11:11:08;;;;;;;10.47;10.07;;;34.70;31.20;;;;;;5046746;28;20455;-84
2022/06/18 11:13:35;;;;;;;11.47;10.73;;;;;;;;;;5056306;28;20465;-85
2022/06/18 11:16:16;;;;;;;11.67;11.00;;;34.30;29.00;;;;;;5059805;28;20505;-85
2022/06/18 11:18:45;;;;;;;11.03;10.43;;;34.70;30.00;;;;;;5061424;28;20410;-85
2022/06/18 11:21:21;;;;;;;10.63;10.13;;;34.40;29.90;;;;;;5063813;28;20430;-84
2022/06/18 11:23:54;;;;;;;12.27;11.20;;;34.50;30.40;;;;;;5068336;28;20513;-83
2022/06/18 11:26:23;;;;;;;12.30;11.60;;;34.60;28.50;;;;;;5049740;28;20442;-87
2022/06/18 11:28:51;;;;;;;12.70;11.90;;;34.40;28.30;;;;;;5057355;28;20415;-83
2022/06/18 11:31:26;;;;;;;11.00;10.10;;;34.40;28.70;;;;;;5045269;28;20427;-86
2022/06/18 11:34:03;;;;;;;12.07;11.30;;;34.40;29.10;;;;;;5041520;28;20458;-87
2022/06/18 11:36:36;;;;;;;11.53;10.83;;;34.40;29.60;;;;;;5048916;28;20445;-84
2022/06/18 11:39:03;;;;;;;10.40;9.90;;;34.40;30.10;;;;;;5048483;28;20432;-87
2022/06/18 11:41:44;;;;;;;13.00;11.70;;;34.40;30.40;;;;;;5050867;28;20587;-86
2022/06/18 11:44:20;;;;;;;12.13;10.57;;;34.50;30.30;;;;;;5060220;28;20445;-87
2022/06/18 11:46:53;;;;;;;11.30;10.40;;;35.00;32.00;;;;;;5061097;28;20507;-86
2022/06/18 11:49:33;;;;;;;12.07;11.27;;;35.00;31.80;;;;;;5044526;28;21102;-85
2022/06/18 11:52:19;;;;;;;11.00;10.20;;;35.50;30.90;;;;;;5039040;28;20433;-86
2022/06/18 11:55:01;;;;;;;12.43;11.40;;;35.50;31.90;;;;;;5036748;28;20465;-86
2022/06/18 11:57:44;;;;;;;12.17;10.90;;;35.40;33.60;;;;;;5034714;28;20442;-87
2022/06/18 12:00:17;;;;;;;11.77;10.83;;;35.10;32.20;;;;;;5057098;28;20431;-86
2022/06/18 12:02:42;;;;;;;12.93;11.90;;;;;;;;;;5059795;28;20417;-87
2022/06/18 12:05:11;;;;;;;13.83;11.03;;;35.20;32.80;;;;;;5055669;28;20444;-87
2022/06/18 12:07:59;;;;;;;14.53;12.03;;;35.20;33.30;;;;;;5042979;28;20223;-87
2022/06/18 12:10:44;;;;;;;13.10;11.80;;;35.40;32.10;;;;;;5041822;28;20433;-85
2022/06/18 12:13:16;;;;;;;13.70;10.87;;;35.40;32.40;;;;;;5050469;28;20439;-85
2022/06/18 12:16:03;;;;;;;11.97;10.80;;;35.30;33.00;;;;;;5053241;28;20539;-86
2022/06/18 12:18:36;;;;;;;13.40;11.87;;;35.30;33.20;;;;;;5062406;28;20416;-85
2022/06/18 12:21:12;;;;;;;12.43;11.57;;;35.40;33.30;;;;;;5045732;28;20444;-87
2022/06/18 12:24:09;;;;;;;11.80;11.00;;;35.10;33.30;;;;;;5059496;28;20431;-86
2022/06/18 12:26:50;;;;;;;12.73;11.47;;;35.40;32.80;;;;;;5055345;28;20445;-86
2022/06/18 12:29:56;;;;;;;13.03;12.00;;;35.70;32.70;;;;;;5049455;28;20446;-85
2022/06/18 12:32:47;;;;;;;13.77;11.20;;;35.50;34.90;;;;;;5028091;28;21004;-85
2022/06/18 12:35:32;;;;;;;13.50;12.10;;;35.10;36.00;;;;;;5057910;28;20477;-86
2022/06/18 12:38:25;;;;;;;12.33;11.37;;;35.20;32.80;;;;;;5056085;28;20786;-82
2022/06/18 12:41:38;;;;;;;12.87;11.53;;;35.20;33.50;;;;;;5052353;28;20484;-84
2022/06/18 12:44:04;;;;;;;11.27;10.37;;;;;;;;;;5052757;28;20958;-85
2022/06/18 12:46:43;;;;;;;12.87;11.63;;;34.70;34.20;;;;;;5059484;28;20552;-86
2022/06/18 12:49:09;;;;;;;13.00;11.50;;;;;;;;;;5042612;28;20521;-85
2022/06/18 12:51:35;;;;;;;13.07;11.87;;;;;;;;;;5065607;28;20456;-82
2022/06/18 12:54:40;;;;;;;11.43;10.33;;;35.00;32.80;;;;;;5072350;28;20870;-83
2022/06/18 12:57:26;;;;;;;11.17;10.37;;;35.00;36.70;;;;;;5059391;28;20449;-85
2022/06/18 13:00:18;;;;;;;13.53;11.40;;;35.40;35.70;;;;;;5052953;28;21184;-85
2022/06/18 13:03:21;;;;;;;12.17;11.17;;;35.70;36.80;;;;;;5063564;28;20424;-86
2022/06/18 13:05:58;;;;;;;11.20;10.17;;;35.40;31.80;;;;;;5060364;28;20465;-84
2022/06/18 13:08:34;;;;;;;12.30;11.40;;;35.10;31.90;;;;;;5051681;28;20970;-86
2022/06/18 13:11:10;;;;;;;12.40;11.70;;;35.40;35.90;;;;;;5055127;28;20424;-88
2022/06/18 13:13:55;;;;;;;15.60;14.40;;;35.20;31.90;;;;;;5054104;28;20465;-86
2022/06/18 13:16:51;;;;;;;14.33;13.03;;;35.00;32.10;;;;;;5059055;28;20470;-86
2022/06/18 13:19:27;;;;;;;13.53;12.53;;;35.30;33.60;;;;;;5056627;28;20426;-84
2022/06/18 13:21:53;;;;;;;11.40;10.50;;;35.20;39.30;;;;;;5059048;28;20433;-87
2022/06/18 13:30:07;;;;;;;15.60;11.60;;;;;;;;;;5053711;28;20417;-86
2022/06/18 13:33:09;;;;;;;12.70;12.00;;;36.00;31.60;;;;;;5059918;28;20424;-86
2022/06/18 13:35:45;;;;;;;11.90;10.70;;;35.80;38.70;;;;;;5042274;28;20457;-86
2022/06/18 13:38:31;;;;;;;13.03;12.23;;;35.90;32.20;;;;;;5042678;28;20517;-86
2022/06/18 13:41:10;;;;;;;15.27;11.90;;;36.10;31.60;;;;;;5055004;28;20507;-86
2022/06/18 13:44:09;;;;;;;12.53;11.50;;;35.90;31.80;;;;;;5053110;28;20971;-85
2022/06/18 13:47:00;;;;;;;13.47;12.13;;;35.90;32.80;;;;;;5065463;23;20503;-85